sensor_id;sensor_type;location;lat;lon;timestamp;temperature;humidity
6142;DHT22;71289;51.552;6.210;2023-10-08T00:00:46;18.60;99.90
6142;DHT22;71289;51.552;6.210;2023-10-08T00:03:15;18.60;99.90
6142;DHT22;71289;51.552;6.210;2023-10-08T00:05:41;18.50;99.90
6142;DHT22;71289;51.552;6.210;2023-10-08T00:08:07;18.50;99.90
6142;DHT22;71289;51.552;6.210;2023-10-08T00:10:39;18.50;99.90
6142;DHT22;71289;51.552;6.210;2023-10-08T00:13:08;18.60;99.90
6142;DHT22;71289;51.552;6.210;2023-10-08T00:15:38;18.40;99.90
6142;DHT22;71289;51.552;6.210;2023-10-08T00:18:15;18.40;99.90
6142;DHT22;71289;51.552;6.210;2023-10-08T00:20:41;18.30;99.90
6142;DHT22;71289;51.552;6.210;2023-10-08T00:23:22;18.30;99.90
6142;DHT22;71289;51.552;6.210;2023-10-08T00:25:55;18.30;99.90
6142;DHT22;71289;51.552;6.210;2023-10-08T00:28:21;18.30;99.90
6142;DHT22;71289;51.552;6.210;2023-10-08T00:30:47;18.30;99.90
6142;DHT22;71289;51.552;6.210;2023-10-08T00:33:13;18.20;99.90
6142;DHT22;71289;51.552;6.210;2023-10-08T00:35:40;18.20;99.90
6142;DHT22;71289;51.552;6.210;2023-10-08T00:38:08;18.20;99.90
6142;DHT22;71289;51.552;6.210;2023-10-08T00:40:40;18.00;99.90
6142;DHT22;71289;51.552;6.210;2023-10-08T00:43:09;18.20;99.90
6142;DHT22;71289;51.552;6.210;2023-10-08T00:45:38;18.10;99.90
6142;DHT22;71289;51.552;6.210;2023-10-08T00:48:11;18.10;99.90
6142;DHT22;71289;51.552;6.210;2023-10-08T00:50:42;18.20;99.90
6142;DHT22;71289;51.552;6.210;2023-10-08T00:53:11;18.20;99.90
6142;DHT22;71289;51.552;6.210;2023-10-08T00:55:43;18.20;99.90
6142;DHT22;71289;51.552;6.210;2023-10-08T00:58:19;18.50;99.90
6142;DHT22;71289;51.552;6.210;2023-10-08T01:00:51;18.20;99.90
6142;DHT22;71289;51.552;6.210;2023-10-08T01:03:22;18.10;99.90
6142;DHT22;71289;51.552;6.210;2023-10-08T01:05:47;18.40;99.90
6142;DHT22;71289;51.552;6.210;2023-10-08T01:08:14;18.10;99.90
6142;DHT22;71289;51.552;6.210;2023-10-08T01:11:16;18.50;99.90
6142;DHT22;71289;51.552;6.210;2023-10-08T01:13:42;18.40;99.90
6142;DHT22;71289;51.552;6.210;2023-10-08T01:16:11;18.20;99.90
6142;DHT22;71289;51.552;6.210;2023-10-08T01:18:36;18.20;99.90
6142;DHT22;71289;51.552;6.210;2023-10-08T01:21:02;18.50;99.90
6142;DHT22;71289;51.552;6.210;2023-10-08T01:23:36;18.20;99.90
6142;DHT22;71289;51.552;6.210;2023-10-08T01:26:03;18.20;99.90
6142;DHT22;71289;51.552;6.210;2023-10-08T01:28:40;18.10;99.90
6142;DHT22;71289;51.552;6.210;2023-10-08T01:31:08;18.10;99.90
6142;DHT22;71289;51.552;6.210;2023-10-08T01:33:37;18.00;99.90
6142;DHT22;71289;51.552;6.210;2023-10-08T01:36:04;18.00;99.90
6142;DHT22;71289;51.552;6.210;2023-10-08T01:38:31;18.00;99.90
6142;DHT22;71289;51.552;6.210;2023-10-08T01:40:58;17.90;99.90
6142;DHT22;71289;51.552;6.210;2023-10-08T01:43:29;17.90;99.90
6142;DHT22;71289;51.552;6.210;2023-10-08T01:45:55;17.80;99.90
6142;DHT22;71289;51.552;6.210;2023-10-08T01:48:21;17.90;99.90
6142;DHT22;71289;51.552;6.210;2023-10-08T01:51:02;17.80;99.90
6142;DHT22;71289;51.552;6.210;2023-10-08T01:53:34;17.80;99.90
6142;DHT22;71289;51.552;6.210;2023-10-08T01:56:01;17.80;99.90
6142;DHT22;71289;51.552;6.210;2023-10-08T01:58:27;17.80;99.90
6142;DHT22;71289;51.552;6.210;2023-10-08T02:00:54;17.70;99.90
6142;DHT22;71289;51.552;6.210;2023-10-08T02:03:23;17.70;99.90
6142;DHT22;71289;51.552;6.210;2023-10-08T02:05:49;17.60;99.90
6142;DHT22;71289;51.552;6.210;2023-10-08T02:08:19;17.60;99.90
6142;DHT22;71289;51.552;6.210;2023-10-08T02:10:45;17.60;99.90
6142;DHT22;71289;51.552;6.210;2023-10-08T02:13:14;17.50;99.90
6142;DHT22;71289;51.552;6.210;2023-10-08T02:15:50;17.50;99.90
6142;DHT22;71289;51.552;6.210;2023-10-08T02:18:19;17.40;99.90
6142;DHT22;71289;51.552;6.210;2023-10-08T02:20:45;17.60;99.90
6142;DHT22;71289;51.552;6.210;2023-10-08T02:23:11;17.40;99.90
6142;DHT22;71289;51.552;6.210;2023-10-08T02:25:38;17.40;99.90
6142;DHT22;71289;51.552;6.210;2023-10-08T02:28:08;17.30;99.90
6142;DHT22;71289;51.552;6.210;2023-10-08T02:30:35;17.30;99.90
6142;DHT22;71289;51.552;6.210;2023-10-08T02:33:02;17.20;99.90
6142;DHT22;71289;51.552;6.210;2023-10-08T02:35:27;17.10;99.90
6142;DHT22;71289;51.552;6.210;2023-10-08T02:37:53;17.10;99.90
6142;DHT22;71289;51.552;6.210;2023-10-08T02:40:20;17.10;99.90
6142;DHT22;71289;51.552;6.210;2023-10-08T02:42:52;17.00;99.90
6142;DHT22;71289;51.552;6.210;2023-10-08T02:45:27;17.00;99.90
6142;DHT22;71289;51.552;6.210;2023-10-08T02:47:53;17.10;99.90
6142;DHT22;71289;51.552;6.210;2023-10-08T02:50:19;17.10;99.90
6142;DHT22;71289;51.552;6.210;2023-10-08T02:52:45;17.00;99.90
6142;DHT22;71289;51.552;6.210;2023-10-08T02:55:11;17.00;99.90
6142;DHT22;71289;51.552;6.210;2023-10-08T02:57:55;17.10;99.90
6142;DHT22;71289;51.552;6.210;2023-10-08T03:00:24;17.00;99.90
6142;DHT22;71289;51.552;6.210;2023-10-08T03:02:56;17.00;99.90
6142;DHT22;71289;51.552;6.210;2023-10-08T03:05:22;17.00;99.90
6142;DHT22;71289;51.552;6.210;2023-10-08T03:07:48;17.30;99.90
6142;DHT22;71289;51.552;6.210;2023-10-08T03:10:16;17.00;99.90
6142;DHT22;71289;51.552;6.210;2023-10-08T03:12:46;17.00;99.90
6142;DHT22;71289;51.552;6.210;2023-10-08T03:15:13;17.00;99.90
6142;DHT22;71289;51.552;6.210;2023-10-08T03:17:43;17.00;99.90
6142;DHT22;71289;51.552;6.210;2023-10-08T03:20:16;17.00;99.90
6142;DHT22;71289;51.552;6.210;2023-10-08T03:23:00;17.00;99.90
6142;DHT22;71289;51.552;6.210;2023-10-08T03:25:25;17.00;99.90
6142;DHT22;71289;51.552;6.210;2023-10-08T03:27:52;16.90;99.90
6142;DHT22;71289;51.552;6.210;2023-10-08T03:30:19;16.90;99.90
6142;DHT22;71289;51.552;6.210;2023-10-08T03:32:45;16.80;99.90
6142;DHT22;71289;51.552;6.210;2023-10-08T03:35:16;16.80;99.90
6142;DHT22;71289;51.552;6.210;2023-10-08T03:37:42;16.80;99.90
6142;DHT22;71289;51.552;6.210;2023-10-08T03:40:12;16.70;99.90
6142;DHT22;71289;51.552;6.210;2023-10-08T03:43:08;16.70;99.90
6142;DHT22;71289;51.552;6.210;2023-10-08T03:45:45;16.70;99.90
6142;DHT22;71289;51.552;6.210;2023-10-08T03:48:16;16.70;99.90
6142;DHT22;71289;51.552;6.210;2023-10-08T03:50:42;16.70;99.90
6142;DHT22;71289;51.552;6.210;2023-10-08T03:53:09;16.70;99.90
6142;DHT22;71289;51.552;6.210;2023-10-08T03:55:38;16.50;99.90
6142;DHT22;71289;51.552;6.210;2023-10-08T03:58:09;16.70;99.90
6142;DHT22;71289;51.552;6.210;2023-10-08T04:00:55;16.60;99.90
6142;DHT22;71289;51.552;6.210;2023-10-08T04:03:37;16.60;99.90
6142;DHT22;71289;51.552;6.210;2023-10-08T04:06:19;16.60;99.90
6142;DHT22;71289;51.552;6.210;2023-10-08T04:08:50;16.60;99.90
6142;DHT22;71289;51.552;6.210;2023-10-08T04:11:37;16.50;99.90
6142;DHT22;71289;51.552;6.210;2023-10-08T04:14:24;16.50;99.90
6142;DHT22;71289;51.552;6.210;2023-10-08T04:16:50;16.50;99.90
6142;DHT22;71289;51.552;6.210;2023-10-08T04:19:22;16.70;99.90
6142;DHT22;71289;51.552;6.210;2023-10-08T04:21:53;16.40;99.90
6142;DHT22;71289;51.552;6.210;2023-10-08T04:24:21;16.40;99.90
6142;DHT22;71289;51.552;6.210;2023-10-08T04:26:53;16.30;99.90
6142;DHT22;71289;51.552;6.210;2023-10-08T04:29:21;16.30;99.90
6142;DHT22;71289;51.552;6.210;2023-10-08T04:31:48;16.20;99.90
6142;DHT22;71289;51.552;6.210;2023-10-08T04:34:19;16.20;99.90
6142;DHT22;71289;51.552;6.210;2023-10-08T04:36:49;16.20;99.90
6142;DHT22;71289;51.552;6.210;2023-10-08T04:39:22;16.30;99.90
6142;DHT22;71289;51.552;6.210;2023-10-08T04:41:51;16.20;99.90
6142;DHT22;71289;51.552;6.210;2023-10-08T04:44:19;16.20;99.90
6142;DHT22;71289;51.552;6.210;2023-10-08T04:46:47;16.60;99.90
6142;DHT22;71289;51.552;6.210;2023-10-08T04:49:14;16.20;99.90
6142;DHT22;71289;51.552;6.210;2023-10-08T04:51:58;16.20;99.90
6142;DHT22;71289;51.552;6.210;2023-10-08T04:54:25;16.30;99.90
6142;DHT22;71289;51.552;6.210;2023-10-08T04:56:58;16.30;99.90
6142;DHT22;71289;51.552;6.210;2023-10-08T04:59:26;16.30;99.90
6142;DHT22;71289;51.552;6.210;2023-10-08T05:01:59;16.50;99.90
6142;DHT22;71289;51.552;6.210;2023-10-08T05:04:40;16.40;99.90
6142;DHT22;71289;51.552;6.210;2023-10-08T05:07:18;16.40;99.90
6142;DHT22;71289;51.552;6.210;2023-10-08T05:09:47;16.40;99.90
6142;DHT22;71289;51.552;6.210;2023-10-08T05:12:28;16.40;99.90
6142;DHT22;71289;51.552;6.210;2023-10-08T05:15:00;16.50;99.90
6142;DHT22;71289;51.552;6.210;2023-10-08T05:17:45;16.50;99.90
6142;DHT22;71289;51.552;6.210;2023-10-08T05:20:23;16.60;99.90
6142;DHT22;71289;51.552;6.210;2023-10-08T05:22:56;16.50;99.90
6142;DHT22;71289;51.552;6.210;2023-10-08T05:25:31;16.50;99.90
6142;DHT22;71289;51.552;6.210;2023-10-08T05:28:22;16.50;99.90
6142;DHT22;71289;51.552;6.210;2023-10-08T05:30:51;16.40;99.90
6142;DHT22;71289;51.552;6.210;2023-10-08T05:33:40;16.40;99.90
6142;DHT22;71289;51.552;6.210;2023-10-08T05:36:24;16.30;99.90
6142;DHT22;71289;51.552;6.210;2023-10-08T05:39:18;16.20;99.90
6142;DHT22;71289;51.552;6.210;2023-10-08T05:41:50;16.30;99.90
6142;DHT22;71289;51.552;6.210;2023-10-08T05:44:17;16.20;99.90
6142;DHT22;71289;51.552;6.210;2023-10-08T05:46:43;16.10;99.90
6142;DHT22;71289;51.552;6.210;2023-10-08T05:49:29;16.10;99.90
6142;DHT22;71289;51.552;6.210;2023-10-08T05:52:04;16.10;99.90
6142;DHT22;71289;51.552;6.210;2023-10-08T05:54:31;16.10;99.90
6142;DHT22;71289;51.552;6.210;2023-10-08T05:57:06;16.10;99.90
6142;DHT22;71289;51.552;6.210;2023-10-08T05:59:35;16.20;99.90
6142;DHT22;71289;51.552;6.210;2023-10-08T06:02:07;16.20;99.90
6142;DHT22;71289;51.552;6.210;2023-10-08T06:04:52;16.20;99.90
6142;DHT22;71289;51.552;6.210;2023-10-08T06:07:50;16.20;99.90
6142;DHT22;71289;51.552;6.210;2023-10-08T06:10:26;16.30;99.90
6142;DHT22;71289;51.552;6.210;2023-10-08T06:13:12;16.30;99.90
6142;DHT22;71289;51.552;6.210;2023-10-08T06:16:08;16.20;99.90
6142;DHT22;71289;51.552;6.210;2023-10-08T06:18:35;16.20;99.90
6142;DHT22;71289;51.552;6.210;2023-10-08T06:21:02;16.20;99.90
6142;DHT22;71289;51.552;6.210;2023-10-08T06:23:37;16.20;99.90
6142;DHT22;71289;51.552;6.210;2023-10-08T06:26:03;16.20;99.90
6142;DHT22;71289;51.552;6.210;2023-10-08T06:28:35;16.20;99.90
6142;DHT22;71289;51.552;6.210;2023-10-08T06:31:02;16.20;99.90
6142;DHT22;71289;51.552;6.210;2023-10-08T06:33:28;16.50;99.90
6142;DHT22;71289;51.552;6.210;2023-10-08T06:35:59;16.20;99.90
6142;DHT22;71289;51.552;6.210;2023-10-08T06:38:31;16.20;99.90
6142;DHT22;71289;51.552;6.210;2023-10-08T06:40:58;16.20;99.90
6142;DHT22;71289;51.552;6.210;2023-10-08T06:43:34;16.10;99.90
6142;DHT22;71289;51.552;6.210;2023-10-08T06:46:02;16.10;99.90
6142;DHT22;71289;51.552;6.210;2023-10-08T06:48:28;16.10;99.90
6142;DHT22;71289;51.552;6.210;2023-10-08T06:50:55;16.40;99.90
6142;DHT22;71289;51.552;6.210;2023-10-08T06:53:33;16.20;99.90
6142;DHT22;71289;51.552;6.210;2023-10-08T06:55:58;16.20;99.90
6142;DHT22;71289;51.552;6.210;2023-10-08T06:58:29;16.30;99.90
6142;DHT22;71289;51.552;6.210;2023-10-08T07:00:57;16.30;99.90
6142;DHT22;71289;51.552;6.210;2023-10-08T07:03:24;16.30;99.90
6142;DHT22;71289;51.552;6.210;2023-10-08T07:05:51;16.40;99.90
6142;DHT22;71289;51.552;6.210;2023-10-08T07:08:24;16.40;99.90
6142;DHT22;71289;51.552;6.210;2023-10-08T07:10:51;16.40;99.90
6142;DHT22;71289;51.552;6.210;2023-10-08T07:13:21;16.40;99.90
6142;DHT22;71289;51.552;6.210;2023-10-08T07:15:50;16.20;99.90
6142;DHT22;71289;51.552;6.210;2023-10-08T07:18:16;16.10;99.90
6142;DHT22;71289;51.552;6.210;2023-10-08T07:20:51;16.20;99.90
6142;DHT22;71289;51.552;6.210;2023-10-08T07:23:23;16.60;99.90
6142;DHT22;71289;51.552;6.210;2023-10-08T07:25:54;16.30;99.90
6142;DHT22;71289;51.552;6.210;2023-10-08T07:28:40;16.30;99.90
6142;DHT22;71289;51.552;6.210;2023-10-08T07:31:22;16.40;99.90
6142;DHT22;71289;51.552;6.210;2023-10-08T07:33:50;16.50;99.90
6142;DHT22;71289;51.552;6.210;2023-10-08T07:36:25;16.60;99.90
6142;DHT22;71289;51.552;6.210;2023-10-08T07:38:52;16.70;99.90
6142;DHT22;71289;51.552;6.210;2023-10-08T07:41:18;16.70;99.90
6142;DHT22;71289;51.552;6.210;2023-10-08T07:43:49;16.70;99.90
6142;DHT22;71289;51.552;6.210;2023-10-08T07:46:21;17.00;99.90
6142;DHT22;71289;51.552;6.210;2023-10-08T07:48:47;16.80;99.90
6142;DHT22;71289;51.552;6.210;2023-10-08T07:51:14;16.80;99.90
6142;DHT22;71289;51.552;6.210;2023-10-08T07:53:39;16.80;99.90
6142;DHT22;71289;51.552;6.210;2023-10-08T07:56:07;16.70;99.90
6142;DHT22;71289;51.552;6.210;2023-10-08T07:58:34;16.80;99.90
6142;DHT22;71289;51.552;6.210;2023-10-08T08:01:07;16.80;99.90
6142;DHT22;71289;51.552;6.210;2023-10-08T08:03:34;16.80;99.90
6142;DHT22;71289;51.552;6.210;2023-10-08T08:06:03;16.70;99.90
6142;DHT22;71289;51.552;6.210;2023-10-08T08:08:34;16.60;99.90
6142;DHT22;71289;51.552;6.210;2023-10-08T08:11:02;16.60;99.90
6142;DHT22;71289;51.552;6.210;2023-10-08T08:13:36;16.50;99.90
6142;DHT22;71289;51.552;6.210;2023-10-08T08:16:01;16.50;99.90
6142;DHT22;71289;51.552;6.210;2023-10-08T08:18:49;16.50;99.90
6142;DHT22;71289;51.552;6.210;2023-10-08T08:21:15;16.60;99.90
6142;DHT22;71289;51.552;6.210;2023-10-08T08:23:46;16.60;99.90
6142;DHT22;71289;51.552;6.210;2023-10-08T08:26:14;16.50;99.90
6142;DHT22;71289;51.552;6.210;2023-10-08T08:29:01;16.50;99.90
6142;DHT22;71289;51.552;6.210;2023-10-08T08:31:30;16.50;99.90
6142;DHT22;71289;51.552;6.210;2023-10-08T08:34:01;16.40;99.90
6142;DHT22;71289;51.552;6.210;2023-10-08T08:36:35;16.30;99.90
6142;DHT22;71289;51.552;6.210;2023-10-08T08:39:04;16.20;99.90
6142;DHT22;71289;51.552;6.210;2023-10-08T08:41:30;16.10;99.90
6142;DHT22;71289;51.552;6.210;2023-10-08T08:43:56;16.00;99.90
6142;DHT22;71289;51.552;6.210;2023-10-08T08:46:43;16.10;99.90
6142;DHT22;71289;51.552;6.210;2023-10-08T08:49:10;16.00;99.90
6142;DHT22;71289;51.552;6.210;2023-10-08T08:51:38;15.90;99.90
6142;DHT22;71289;51.552;6.210;2023-10-08T08:54:04;15.90;99.90
6142;DHT22;71289;51.552;6.210;2023-10-08T08:56:36;15.90;99.90
6142;DHT22;71289;51.552;6.210;2023-10-08T08:59:04;15.90;99.90
6142;DHT22;71289;51.552;6.210;2023-10-08T09:01:31;15.90;99.90
6142;DHT22;71289;51.552;6.210;2023-10-08T09:04:02;15.90;99.90
6142;DHT22;71289;51.552;6.210;2023-10-08T09:06:32;15.90;99.90
6142;DHT22;71289;51.552;6.210;2023-10-08T09:09:03;15.90;99.90
6142;DHT22;71289;51.552;6.210;2023-10-08T09:11:51;15.90;99.90
6142;DHT22;71289;51.552;6.210;2023-10-08T09:14:24;15.90;99.90
6142;DHT22;71289;51.552;6.210;2023-10-08T09:16:51;15.90;99.90
6142;DHT22;71289;51.552;6.210;2023-10-08T09:19:17;15.90;99.90
6142;DHT22;71289;51.552;6.210;2023-10-08T09:22:07;15.90;99.90
6142;DHT22;71289;51.552;6.210;2023-10-08T09:24:41;15.90;99.90
6142;DHT22;71289;51.552;6.210;2023-10-08T09:27:08;15.90;99.90
6142;DHT22;71289;51.552;6.210;2023-10-08T09:29:34;15.90;99.90
6142;DHT22;71289;51.552;6.210;2023-10-08T09:32:06;15.90;99.90
6142;DHT22;71289;51.552;6.210;2023-10-08T09:34:33;15.80;99.90
6142;DHT22;71289;51.552;6.210;2023-10-08T09:37:00;15.80;99.90
6142;DHT22;71289;51.552;6.210;2023-10-08T09:39:27;15.90;99.90
6142;DHT22;71289;51.552;6.210;2023-10-08T09:41:57;15.80;99.90
6142;DHT22;71289;51.552;6.210;2023-10-08T09:44:24;15.80;99.90
6142;DHT22;71289;51.552;6.210;2023-10-08T09:47:08;15.80;99.90
6142;DHT22;71289;51.552;6.210;2023-10-08T09:49:56;15.80;99.90
6142;DHT22;71289;51.552;6.210;2023-10-08T09:52:26;15.80;99.90
6142;DHT22;71289;51.552;6.210;2023-10-08T09:55:03;16.10;99.90
6142;DHT22;71289;51.552;6.210;2023-10-08T09:57:35;15.80;99.90
6142;DHT22;71289;51.552;6.210;2023-10-08T10:00:02;15.80;99.90
6142;DHT22;71289;51.552;6.210;2023-10-08T10:02:30;15.80;99.90
6142;DHT22;71289;51.552;6.210;2023-10-08T10:04:56;15.80;99.90
6142;DHT22;71289;51.552;6.210;2023-10-08T10:07:22;15.80;99.90
6142;DHT22;71289;51.552;6.210;2023-10-08T10:09:51;15.90;99.90
6142;DHT22;71289;51.552;6.210;2023-10-08T10:12:26;15.70;99.90
6142;DHT22;71289;51.552;6.210;2023-10-08T10:14:56;16.00;99.90
6142;DHT22;71289;51.552;6.210;2023-10-08T10:17:25;16.10;99.90
6142;DHT22;71289;51.552;6.210;2023-10-08T10:20:09;16.10;99.90
6142;DHT22;71289;51.552;6.210;2023-10-08T10:22:38;16.10;99.90
6142;DHT22;71289;51.552;6.210;2023-10-08T10:25:05;16.10;99.90
6142;DHT22;71289;51.552;6.210;2023-10-08T10:30:39;16.30;99.90
6142;DHT22;71289;51.552;6.210;2023-10-08T10:33:04;16.30;99.90
6142;DHT22;71289;51.552;6.210;2023-10-08T10:35:31;16.10;99.90
6142;DHT22;71289;51.552;6.210;2023-10-08T10:37:58;16.20;99.90
6142;DHT22;71289;51.552;6.210;2023-10-08T10:40:29;16.30;99.90
6142;DHT22;71289;51.552;6.210;2023-10-08T10:42:58;16.40;99.90
6142;DHT22;71289;51.552;6.210;2023-10-08T10:45:29;16.40;99.90
6142;DHT22;71289;51.552;6.210;2023-10-08T10:48:06;16.40;99.90
6142;DHT22;71289;51.552;6.210;2023-10-08T10:50:43;16.40;99.90
6142;DHT22;71289;51.552;6.210;2023-10-08T10:53:17;16.40;99.90
6142;DHT22;71289;51.552;6.210;2023-10-08T10:55:43;16.40;99.90
6142;DHT22;71289;51.552;6.210;2023-10-08T10:58:28;16.40;99.90
6142;DHT22;71289;51.552;6.210;2023-10-08T11:01:04;16.80;99.90
6142;DHT22;71289;51.552;6.210;2023-10-08T11:03:52;16.60;99.90
6142;DHT22;71289;51.552;6.210;2023-10-08T11:06:22;16.50;99.90
6142;DHT22;71289;51.552;6.210;2023-10-08T11:08:50;16.50;99.90
6142;DHT22;71289;51.552;6.210;2023-10-08T11:11:25;16.60;99.90
6142;DHT22;71289;51.552;6.210;2023-10-08T11:13:56;16.70;99.90
6142;DHT22;71289;51.552;6.210;2023-10-08T11:16:23;16.70;99.90
6142;DHT22;71289;51.552;6.210;2023-10-08T11:18:50;16.60;99.90
6142;DHT22;71289;51.552;6.210;2023-10-08T11:21:17;16.60;99.90
6142;DHT22;71289;51.552;6.210;2023-10-08T11:23:49;16.60;99.90
6142;DHT22;71289;51.552;6.210;2023-10-08T11:26:19;16.60;99.90
6142;DHT22;71289;51.552;6.210;2023-10-08T11:28:45;16.60;99.90
6142;DHT22;71289;51.552;6.210;2023-10-08T11:31:14;16.70;99.90
6142;DHT22;71289;51.552;6.210;2023-10-08T11:33:45;16.70;99.90
6142;DHT22;71289;51.552;6.210;2023-10-08T11:36:23;16.60;99.90
6142;DHT22;71289;51.552;6.210;2023-10-08T11:38:57;16.70;99.90
6142;DHT22;71289;51.552;6.210;2023-10-08T11:41:31;16.70;99.90
6142;DHT22;71289;51.552;6.210;2023-10-08T11:44:09;16.80;99.90
6142;DHT22;71289;51.552;6.210;2023-10-08T11:46:38;16.80;99.90
6142;DHT22;71289;51.552;6.210;2023-10-08T11:49:08;16.70;99.90
6142;DHT22;71289;51.552;6.210;2023-10-08T11:51:43;16.50;99.90
6142;DHT22;71289;51.552;6.210;2023-10-08T11:54:08;16.70;99.90
6142;DHT22;71289;51.552;6.210;2023-10-08T11:56:38;16.60;99.90
6142;DHT22;71289;51.552;6.210;2023-10-08T11:59:04;17.00;99.90
6142;DHT22;71289;51.552;6.210;2023-10-08T12:01:37;16.70;99.90
6142;DHT22;71289;51.552;6.210;2023-10-08T12:04:03;16.70;99.90
6142;DHT22;71289;51.552;6.210;2023-10-08T12:06:29;16.80;99.90
6142;DHT22;71289;51.552;6.210;2023-10-08T12:08:59;16.70;99.90
6142;DHT22;71289;51.552;6.210;2023-10-08T12:11:25;16.90;99.90
6142;DHT22;71289;51.552;6.210;2023-10-08T12:13:58;16.90;99.90
6142;DHT22;71289;51.552;6.210;2023-10-08T12:16:28;17.00;99.90
6142;DHT22;71289;51.552;6.210;2023-10-08T12:19:01;17.00;99.90
6142;DHT22;71289;51.552;6.210;2023-10-08T12:21:30;17.10;99.90
6142;DHT22;71289;51.552;6.210;2023-10-08T12:23:57;17.40;99.90
6142;DHT22;71289;51.552;6.210;2023-10-08T12:26:23;17.10;99.90
6142;DHT22;71289;51.552;6.210;2023-10-08T12:28:49;17.00;99.90
6142;DHT22;71289;51.552;6.210;2023-10-08T12:31:16;17.00;99.90
6142;DHT22;71289;51.552;6.210;2023-10-08T12:33:43;16.90;99.90
6142;DHT22;71289;51.552;6.210;2023-10-08T12:36:11;17.00;99.90
6142;DHT22;71289;51.552;6.210;2023-10-08T12:38:41;16.90;99.90
6142;DHT22;71289;51.552;6.210;2023-10-08T12:41:08;16.90;99.90
6142;DHT22;71289;51.552;6.210;2023-10-08T12:43:41;16.80;99.90
6142;DHT22;71289;51.552;6.210;2023-10-08T12:46:18;16.80;99.90
6142;DHT22;71289;51.552;6.210;2023-10-08T12:48:45;16.80;99.90
6142;DHT22;71289;51.552;6.210;2023-10-08T12:51:14;16.80;99.90
6142;DHT22;71289;51.552;6.210;2023-10-08T12:53:40;16.70;99.90
6142;DHT22;71289;51.552;6.210;2023-10-08T12:56:09;16.70;99.90
6142;DHT22;71289;51.552;6.210;2023-10-08T12:58:41;16.80;99.90
6142;DHT22;71289;51.552;6.210;2023-10-08T13:01:09;16.80;99.90
6142;DHT22;71289;51.552;6.210;2023-10-08T13:03:36;17.00;99.90
6142;DHT22;71289;51.552;6.210;2023-10-08T13:06:07;16.90;99.90
6142;DHT22;71289;51.552;6.210;2023-10-08T13:08:37;17.00;99.90
6142;DHT22;71289;51.552;6.210;2023-10-08T13:11:02;17.10;99.90
6142;DHT22;71289;51.552;6.210;2023-10-08T13:13:29;17.60;99.90
6142;DHT22;71289;51.552;6.210;2023-10-08T13:15:56;17.30;99.90
6142;DHT22;71289;51.552;6.210;2023-10-08T13:18:23;17.20;99.90
6142;DHT22;71289;51.552;6.210;2023-10-08T13:20:51;17.20;99.90
6142;DHT22;71289;51.552;6.210;2023-10-08T13:23:17;17.10;99.90
6142;DHT22;71289;51.552;6.210;2023-10-08T13:25:44;17.40;99.90
6142;DHT22;71289;51.552;6.210;2023-10-08T13:28:12;17.40;99.90
6142;DHT22;71289;51.552;6.210;2023-10-08T13:30:37;17.40;99.90
6142;DHT22;71289;51.552;6.210;2023-10-08T13:33:03;17.40;99.90
6142;DHT22;71289;51.552;6.210;2023-10-08T13:35:29;17.40;99.90
6142;DHT22;71289;51.552;6.210;2023-10-08T13:37:54;17.40;99.90
6142;DHT22;71289;51.552;6.210;2023-10-08T13:40:21;17.10;99.90
6142;DHT22;71289;51.552;6.210;2023-10-08T13:42:58;17.30;99.90
6142;DHT22;71289;51.552;6.210;2023-10-08T13:45:24;17.60;99.90
6142;DHT22;71289;51.552;6.210;2023-10-08T13:47:52;17.40;99.90
6142;DHT22;71289;51.552;6.210;2023-10-08T13:50:18;17.40;99.90
6142;DHT22;71289;51.552;6.210;2023-10-08T13:52:44;17.40;99.90
6142;DHT22;71289;51.552;6.210;2023-10-08T13:55:10;17.50;99.90
6142;DHT22;71289;51.552;6.210;2023-10-08T13:57:39;17.60;99.90
6142;DHT22;71289;51.552;6.210;2023-10-08T14:00:07;17.70;99.90
6142;DHT22;71289;51.552;6.210;2023-10-08T14:02:41;17.70;99.90
6142;DHT22;71289;51.552;6.210;2023-10-08T14:05:08;17.70;99.90
6142;DHT22;71289;51.552;6.210;2023-10-08T14:07:35;17.80;99.90
6142;DHT22;71289;51.552;6.210;2023-10-08T14:10:01;18.00;99.90
6142;DHT22;71289;51.552;6.210;2023-10-08T14:12:31;17.50;99.90
6142;DHT22;71289;51.552;6.210;2023-10-08T14:15:01;17.80;99.90
6142;DHT22;71289;51.552;6.210;2023-10-08T14:17:32;17.60;99.90
6142;DHT22;71289;51.552;6.210;2023-10-08T14:20:13;17.60;99.90
6142;DHT22;71289;51.552;6.210;2023-10-08T14:22:40;17.60;99.90
6142;DHT22;71289;51.552;6.210;2023-10-08T14:25:08;18.00;99.90
6142;DHT22;71289;51.552;6.210;2023-10-08T14:27:37;17.60;99.90
6142;DHT22;71289;51.552;6.210;2023-10-08T14:30:09;17.60;99.90
6142;DHT22;71289;51.552;6.210;2023-10-08T14:32:41;17.60;99.90
6142;DHT22;71289;51.552;6.210;2023-10-08T14:35:11;17.60;99.90
6142;DHT22;71289;51.552;6.210;2023-10-08T14:37:55;17.70;99.90
6142;DHT22;71289;51.552;6.210;2023-10-08T14:40:39;17.70;99.90
6142;DHT22;71289;51.552;6.210;2023-10-08T14:43:23;17.70;99.90
6142;DHT22;71289;51.552;6.210;2023-10-08T14:45:49;17.70;99.90
6142;DHT22;71289;51.552;6.210;2023-10-08T14:48:15;17.80;99.90
6142;DHT22;71289;51.552;6.210;2023-10-08T14:50:41;18.10;99.90
6142;DHT22;71289;51.552;6.210;2023-10-08T14:53:07;17.50;99.90
6142;DHT22;71289;51.552;6.210;2023-10-08T14:55:34;17.80;99.90
6142;DHT22;71289;51.552;6.210;2023-10-08T14:58:01;17.70;99.90
6142;DHT22;71289;51.552;6.210;2023-10-08T15:00:33;17.70;99.90
6142;DHT22;71289;51.552;6.210;2023-10-08T15:03:01;17.70;99.90
6142;DHT22;71289;51.552;6.210;2023-10-08T15:05:28;17.70;99.90
6142;DHT22;71289;51.552;6.210;2023-10-08T15:07:54;17.70;99.90
6142;DHT22;71289;51.552;6.210;2023-10-08T15:10:19;17.70;99.90
6142;DHT22;71289;51.552;6.210;2023-10-08T15:12:47;17.70;99.90
6142;DHT22;71289;51.552;6.210;2023-10-08T15:15:13;17.70;99.90
6142;DHT22;71289;51.552;6.210;2023-10-08T15:17:42;17.70;99.90
6142;DHT22;71289;51.552;6.210;2023-10-08T15:20:10;17.70;99.90
6142;DHT22;71289;51.552;6.210;2023-10-08T15:22:40;17.70;99.90
6142;DHT22;71289;51.552;6.210;2023-10-08T15:25:08;17.70;99.90
6142;DHT22;71289;51.552;6.210;2023-10-08T15:27:36;17.70;99.90
6142;DHT22;71289;51.552;6.210;2023-10-08T15:30:05;17.60;99.90
6142;DHT22;71289;51.552;6.210;2023-10-08T15:32:32;17.60;99.90
6142;DHT22;71289;51.552;6.210;2023-10-08T15:34:58;17.50;99.90
6142;DHT22;71289;51.552;6.210;2023-10-08T15:37:23;17.50;99.90
6142;DHT22;71289;51.552;6.210;2023-10-08T15:39:49;17.60;99.90
6142;DHT22;71289;51.552;6.210;2023-10-08T15:42:15;17.50;99.90
6142;DHT22;71289;51.552;6.210;2023-10-08T15:44:43;17.40;99.90
6142;DHT22;71289;51.552;6.210;2023-10-08T15:47:08;17.40;99.90
6142;DHT22;71289;51.552;6.210;2023-10-08T15:49:34;17.50;99.90
6142;DHT22;71289;51.552;6.210;2023-10-08T15:51:59;17.40;99.90
6142;DHT22;71289;51.552;6.210;2023-10-08T15:54:25;17.40;99.90
6142;DHT22;71289;51.552;6.210;2023-10-08T15:56:50;17.40;99.90
6142;DHT22;71289;51.552;6.210;2023-10-08T15:59:16;17.40;99.90
6142;DHT22;71289;51.552;6.210;2023-10-08T16:01:42;17.30;99.90
6142;DHT22;71289;51.552;6.210;2023-10-08T16:04:11;17.30;99.90
6142;DHT22;71289;51.552;6.210;2023-10-08T16:06:37;17.30;99.90
6142;DHT22;71289;51.552;6.210;2023-10-08T16:09:03;17.10;99.90